Lexington, KY (40517)

7:27 PM EDT on April 26, 2018 (GMT -0400)
Chinoe Apartments | | Change Station

Elev 1066 ft 37.99 °N, 84.48 °W | Updated 6 seconds ago

Mostly Cloudy
Mostly Cloudy
63.5 °F
Feels Like 63.5 °F
N
0.0
Wind Variable Wind from West
Gusts 0.0 mph

Today
High -- | Low -- °F
--% Chance of Precip.
Yesterday
High -- | Low -- °F
Precip. -- in
Pressure 29.84 in
Visibility 10.0 miles
Clouds Overcast 7500 ft
Dew Point 47 °F
Humidity 55%
Rainfall 0.00 in
Snow Depth Not available.
6:47 AM 8:24 PM
Waxing Gibbous, 90% visible
METAR KLEX 262254Z 32004KT 10SM OVC075 18/08 A2984 RMK AO2 SLP103 T01780083
Pressure 29.84 in
Visibility 10.0 miles
Clouds Overcast 7500 ft
Dew Point 47 °F
Humidity 55%
Rainfall 0.00 in
Snow Depth Not available.
6:47 AM 8:24 PM
Waxing Gibbous, 90% visible
METAR KLEX 262254Z 32004KT 10SM OVC075 18/08 A2984 RMK AO2 SLP103 T01780083

Get Severe Weather Alerts

Thanks for signing up!

Be on the lookout for a verification email in your inbox.

You'll start receiving the daily forecast at 6 AM.

×

10-Day Weather Forecast

Almanac

Astronomy

Apr. 26, 2018 Rise Set
Actual Time
Civil Twilight
Nautical Twilight
Astronomical Twilight
Moon
Length of Visible Light
Length of Day
Tomorrow will be .
, % of the Moon is Illuminated

Today's Extremes

State Highs State Lows

Community

WunderPhotos

Category 6

Welcome to Category 6. This is the collective home for Weather Underground's featured writeups by Dr. Jeff Masters (right), Bob Henson (left), Chris Burt, and other regular contributors.

Nearby

Air Quality

  Air Quality AQ Index Pollutant
Not available.

Snow Depth

Station Depth Elevation

Earthquake Activity

City Distance Mag. Time & Date
Minimum magnitude displayed is 2.5.

Coastal Water Temperatures

Place Temperature

Stations

Nearby Weather Stations

Station Location Temp. Windchill Dew Point Humidity Wind Precip. Elev Updated Type
                   

Watches & Warnings

There are currently no watches in effect.